createdAt,value
2018-11-04T00:00:33.750Z,1002.16
2018-11-04T00:01:33.750Z,1002.14
2018-11-04T00:02:33.717Z,1002.10
2018-11-04T00:03:33.704Z,1002.17
2018-11-04T00:04:33.735Z,1002.15
2018-11-04T00:05:33.687Z,1002.17
2018-11-04T00:06:33.678Z,1002.13
2018-11-04T00:07:33.670Z,1002.10
2018-11-04T00:08:33.656Z,1002.12
2018-11-04T00:09:33.655Z,1002.10
2018-11-04T00:10:33.676Z,1002.10
2018-11-04T00:11:33.619Z,1002.10
2018-11-04T00:12:33.609Z,1002.15
2018-11-04T00:13:33.618Z,1002.11
2018-11-04T00:14:33.591Z,1002.10
2018-11-04T00:15:33.580Z,1002.07
2018-11-04T00:16:33.615Z,1002.13
2018-11-04T00:17:33.557Z,1002.11
2018-11-04T00:18:33.545Z,1002.12
2018-11-04T00:19:33.551Z,1002.12
2018-11-04T00:20:33.534Z,1002.11
2018-11-04T00:21:33.519Z,1002.10
2018-11-04T00:22:33.550Z,1002.08
2018-11-04T00:23:33.496Z,1002.07
2018-11-04T00:24:33.491Z,1002.02
2018-11-04T00:25:33.483Z,1001.97
2018-11-04T00:26:33.475Z,1002.00
2018-11-04T00:27:33.454Z,1001.97
2018-11-04T00:28:33.489Z,1001.94
2018-11-04T00:29:33.475Z,1001.98
2018-11-04T00:30:33.422Z,1001.93
2018-11-04T00:31:33.412Z,1001.95
2018-11-04T00:32:33.421Z,1001.94
2018-11-04T00:33:33.389Z,1001.98
2018-11-04T00:34:33.441Z,1001.94
2018-11-04T00:35:33.365Z,1001.92
2018-11-04T00:36:33.359Z,1001.90
2018-11-04T00:37:33.344Z,1001.89
2018-11-04T00:38:33.344Z,1001.85
2018-11-04T00:39:33.331Z,1001.82
2018-11-04T00:40:33.350Z,1001.78
2018-11-04T00:41:33.298Z,1001.79
2018-11-04T00:42:33.290Z,1001.83
2018-11-04T00:43:33.276Z,1001.78
2018-11-04T00:44:33.278Z,1001.77
2018-11-04T00:45:33.366Z,1001.71
2018-11-04T00:46:33.307Z,1001.76
2018-11-04T00:47:33.239Z,1001.68
2018-11-04T00:48:33.245Z,1001.68
2018-11-04T00:49:33.220Z,1001.63
2018-11-04T00:50:33.225Z,1001.67
2018-11-04T00:51:33.191Z,1001.66
2018-11-04T00:52:33.376Z,1001.59
2018-11-04T00:53:33.184Z,1001.57
2018-11-04T00:54:33.166Z,1001.55
2018-11-04T00:55:33.153Z,1001.61
2018-11-04T00:56:33.163Z,1001.54
2018-11-04T00:57:33.129Z,1001.53
2018-11-04T00:58:33.149Z,1001.48
2018-11-04T00:59:33.112Z,1001.48
2018-11-04T01:00:33.095Z,1001.44
2018-11-04T01:01:33.144Z,1001.51
2018-11-04T01:02:33.093Z,1001.42
2018-11-04T01:03:33.070Z,1001.49
2018-11-04T01:04:33.107Z,1001.38
2018-11-04T01:05:33.044Z,1001.42
2018-11-04T01:06:33.035Z,1001.41
2018-11-04T01:07:33.037Z,1001.39
2018-11-04T01:08:33.027Z,1001.37
2018-11-04T01:09:33.027Z,1001.33
2018-11-04T01:10:33.028Z,1001.36
2018-11-04T01:11:32.976Z,1001.34
2018-11-04T01:12:32.969Z,1001.33
2018-11-04T01:13:32.955Z,1001.34
2018-11-04T01:14:32.971Z,1001.37
2018-11-04T01:15:32.935Z,1001.34
2018-11-04T01:16:32.974Z,1001.27
2018-11-04T01:17:32.923Z,1001.29
2018-11-04T01:18:32.908Z,1001.23
2018-11-04T01:19:32.898Z,1001.23
2018-11-04T01:20:32.896Z,1001.27
2018-11-04T01:21:32.884Z,1001.23
2018-11-04T01:22:32.897Z,1001.26
2018-11-04T01:23:32.848Z,1001.27
2018-11-04T01:24:32.908Z,1001.19
2018-11-04T01:25:32.827Z,1001.24
2018-11-04T01:26:32.832Z,1001.22
2018-11-04T01:27:32.811Z,1001.19
2018-11-04T01:28:32.848Z,1001.15
2018-11-04T01:29:32.801Z,1001.17
2018-11-04T01:30:32.783Z,1001.20
2018-11-04T01:31:32.762Z,1001.14
2018-11-04T01:32:32.756Z,1001.22
2018-11-04T01:33:32.756Z,1001.18
2018-11-04T01:34:32.773Z,1001.12
2018-11-04T01:35:32.729Z,1001.07
2018-11-04T01:36:32.754Z,1001.14
2018-11-04T01:37:32.710Z,1001.15
2018-11-04T01:38:32.694Z,1001.06
2018-11-04T01:39:32.679Z,1001.12
2018-11-04T01:40:32.723Z,1001.03
2018-11-04T01:41:32.686Z,1000.97
2018-11-04T01:42:32.646Z,1001.04
2018-11-04T01:43:32.634Z,1001.03
2018-11-04T01:44:32.625Z,1001.01
2018-11-04T01:45:32.620Z,1001.02
2018-11-04T01:46:32.636Z,1000.97
2018-11-04T01:47:32.614Z,1000.95
2018-11-04T01:48:32.582Z,1000.95
2018-11-04T01:49:32.574Z,1000.92
2018-11-04T01:50:32.561Z,1000.85
2018-11-04T01:51:32.562Z,1000.82
2018-11-04T01:52:32.597Z,1000.85
2018-11-04T01:53:32.531Z,1000.81
2018-11-04T01:54:32.551Z,1000.80
2018-11-04T01:55:32.508Z,1000.82
2018-11-04T01:56:32.503Z,1000.79
2018-11-04T01:57:32.488Z,1000.81
2018-11-04T01:58:32.519Z,1000.80
2018-11-04T01:59:32.477Z,1000.75
2018-11-04T02:00:32.474Z,1000.76
2018-11-04T02:01:32.447Z,1000.76
2018-11-04T02:02:32.436Z,1000.68
2018-11-04T02:03:32.430Z,1000.65
2018-11-04T02:04:32.466Z,1000.62
2018-11-04T02:05:32.403Z,1000.60
2018-11-04T02:06:32.408Z,1000.58
2018-11-04T02:07:32.380Z,1000.56
2018-11-04T02:08:32.372Z,1000.54
2018-11-04T02:09:32.363Z,1000.55
2018-11-04T02:10:32.537Z,1000.53
2018-11-04T02:11:32.342Z,1000.45
2018-11-04T02:12:32.351Z,1000.42
2018-11-04T02:13:32.324Z,1000.44
2018-11-04T02:14:32.304Z,1000.40
2018-11-04T02:15:32.300Z,1000.41
2018-11-04T02:16:32.329Z,1000.41
2018-11-04T02:17:32.273Z,1000.43
2018-11-04T02:18:32.273Z,1000.43
2018-11-04T02:19:32.257Z,1000.41
2018-11-04T02:20:32.240Z,1000.41
2018-11-04T02:21:32.232Z,1000.39
2018-11-04T02:22:32.254Z,1000.38
2018-11-04T02:23:32.215Z,1000.32
2018-11-04T02:24:32.219Z,1000.32
2018-11-04T02:25:32.194Z,1000.31
2018-11-04T02:26:32.180Z,1000.26
2018-11-04T02:27:32.166Z,1000.25
2018-11-04T02:28:32.205Z,1000.24
2018-11-04T02:29:32.161Z,1000.23
2018-11-04T02:30:32.133Z,1000.22
2018-11-04T02:31:32.125Z,1000.21
2018-11-04T02:32:32.116Z,1000.18
2018-11-04T02:33:32.100Z,1000.16
2018-11-04T02:34:32.271Z,1000.18
2018-11-04T02:35:32.097Z,1000.12
2018-11-04T02:36:32.089Z,1000.08
2018-11-04T02:37:32.058Z,1000.06
2018-11-04T02:38:32.052Z,1000.06
2018-11-04T02:39:32.039Z,1000.04
2018-11-04T02:40:32.066Z,1000.03
2018-11-04T02:41:32.036Z,999.97
2018-11-04T02:42:32.013Z,999.97
2018-11-04T02:43:31.996Z,999.96
2018-11-04T02:44:31.983Z,999.97
2018-11-04T02:45:31.973Z,1000.00
2018-11-04T02:46:32.005Z,999.97
2018-11-04T02:47:31.968Z,999.97
2018-11-04T02:48:31.966Z,999.93
2018-11-04T02:49:31.939Z,999.88
2018-11-04T02:50:31.920Z,999.91
2018-11-04T02:51:31.909Z,999.96
2018-11-04T02:52:31.931Z,999.90
2018-11-04T02:53:31.891Z,999.96
2018-11-04T02:54:31.876Z,999.93
2018-11-04T02:55:31.890Z,999.93
2018-11-04T02:56:31.853Z,999.95
2018-11-04T02:57:31.841Z,999.93
2018-11-04T02:58:31.873Z,999.87
2018-11-04T02:59:31.824Z,999.92
2018-11-04T03:00:31.818Z,999.91
2018-11-04T03:01:31.825Z,999.83
2018-11-04T03:02:31.790Z,999.81
2018-11-04T03:03:31.783Z,999.85
2018-11-04T03:04:31.815Z,999.90
2018-11-04T03:05:31.758Z,999.82
2018-11-04T03:06:31.752Z,999.85
2018-11-04T03:07:31.766Z,999.84
2018-11-04T03:08:31.723Z,999.82
2018-11-04T03:09:31.712Z,999.81
2018-11-04T03:10:31.753Z,999.73
2018-11-04T03:11:31.693Z,999.73
2018-11-04T03:12:31.682Z,999.73
2018-11-04T03:13:31.697Z,999.74
2018-11-04T03:14:31.661Z,999.75
2018-11-04T03:15:31.652Z,999.69
2018-11-04T03:16:31.671Z,999.72
2018-11-04T03:17:31.628Z,999.69
2018-11-04T03:18:31.629Z,999.69
2018-11-04T03:19:31.632Z,999.65
2018-11-04T03:20:31.594Z,999.66
2018-11-04T03:21:31.587Z,999.67
2018-11-04T03:22:31.638Z,999.65
2018-11-04T03:23:31.561Z,999.65
2018-11-04T03:24:31.576Z,999.71
2018-11-04T03:25:31.560Z,999.65
2018-11-04T03:26:31.532Z,999.67
2018-11-04T03:27:31.522Z,999.61
2018-11-04T03:28:31.703Z,999.59
2018-11-04T03:29:31.502Z,999.64
2018-11-04T03:30:31.491Z,999.61
2018-11-04T03:31:31.495Z,999.60
2018-11-04T03:32:31.468Z,999.58
2018-11-04T03:33:31.452Z,999.53
2018-11-04T03:34:31.482Z,999.53
2018-11-04T03:35:31.440Z,999.56
2018-11-04T03:36:31.424Z,999.55
2018-11-04T03:37:31.432Z,999.59
2018-11-04T03:38:31.402Z,999.60
2018-11-04T03:39:31.387Z,999.58
2018-11-04T03:40:31.414Z,999.59
2018-11-04T03:41:31.439Z,999.58
2018-11-04T03:42:31.355Z,999.56
2018-11-04T03:43:31.384Z,999.61
2018-11-04T03:44:31.331Z,999.58
2018-11-04T03:45:31.322Z,999.54
2018-11-04T03:46:31.589Z,999.52
2018-11-04T03:47:31.300Z,999.51
2018-11-04T03:48:31.287Z,999.52
2018-11-04T03:49:31.293Z,999.52
2018-11-04T03:50:31.265Z,999.51
2018-11-04T03:51:31.257Z,999.48
2018-11-04T03:52:31.272Z,999.49
2018-11-04T03:53:31.234Z,999.47
2018-11-04T03:54:31.223Z,999.41
2018-11-04T03:55:31.230Z,999.43
2018-11-04T03:56:31.200Z,999.47
2018-11-04T03:57:31.202Z,999.42
2018-11-04T03:58:31.232Z,999.45
2018-11-04T03:59:31.167Z,999.39
2018-11-04T04:00:31.172Z,999.36
2018-11-04T04:01:31.174Z,999.40
2018-11-04T04:02:31.139Z,999.45
2018-11-04T04:03:31.124Z,999.43
2018-11-04T04:04:31.142Z,999.45
2018-11-04T04:05:31.103Z,999.48
2018-11-04T04:06:31.090Z,999.41
2018-11-04T04:07:31.097Z,999.39
2018-11-04T04:08:31.074Z,999.41
2018-11-04T04:09:31.060Z,999.32
2018-11-04T04:10:31.093Z,999.38
2018-11-04T04:11:31.050Z,999.41
2018-11-04T04:12:31.030Z,999.43
2018-11-04T04:13:31.036Z,999.44
2018-11-04T04:14:31.004Z,999.40
2018-11-04T04:15:30.995Z,999.44
2018-11-04T04:16:31.016Z,999.42
2018-11-04T04:17:30.974Z,999.43
2018-11-04T04:18:30.961Z,999.40
2018-11-04T04:19:30.990Z,999.30
2018-11-04T04:20:30.941Z,999.31
2018-11-04T04:21:30.930Z,999.34
2018-11-04T04:22:30.956Z,999.35
2018-11-04T04:23:30.907Z,999.36
2018-11-04T04:24:30.892Z,999.34
2018-11-04T04:25:30.898Z,999.38
2018-11-04T04:26:30.878Z,999.34
2018-11-04T04:27:30.867Z,999.35
2018-11-04T04:28:30.891Z,999.36
2018-11-04T04:29:30.839Z,999.34
2018-11-04T04:30:30.826Z,999.29
2018-11-04T04:31:30.836Z,999.28
2018-11-04T04:32:30.807Z,999.29
2018-11-04T04:33:30.797Z,999.29
2018-11-04T04:34:30.835Z,999.29
2018-11-04T04:35:30.772Z,999.27
2018-11-04T04:36:30.761Z,999.21
2018-11-04T04:37:30.760Z,999.23
2018-11-04T04:38:30.743Z,999.17
2018-11-04T04:39:30.730Z,999.22
2018-11-04T04:40:30.760Z,999.19
2018-11-04T04:41:30.708Z,999.16
2018-11-04T04:42:30.703Z,999.18
2018-11-04T04:43:30.716Z,999.20
2018-11-04T04:44:30.676Z,999.16
2018-11-04T04:45:30.666Z,999.17
2018-11-04T04:46:30.694Z,999.16
2018-11-04T04:47:30.640Z,999.16
2018-11-04T04:48:30.633Z,999.13
2018-11-04T04:49:30.636Z,999.14
2018-11-04T04:50:30.625Z,999.10
2018-11-04T04:51:30.599Z,999.10
2018-11-04T04:52:30.639Z,999.09
2018-11-04T04:53:30.582Z,999.07
2018-11-04T04:54:30.573Z,999.06
2018-11-04T04:55:30.572Z,998.99
2018-11-04T04:56:30.546Z,999.04
2018-11-04T04:57:30.538Z,999.00
2018-11-04T04:58:30.551Z,998.98
2018-11-04T04:59:30.513Z,998.97
2018-11-04T05:00:30.503Z,998.94
2018-11-04T05:01:30.512Z,998.93
2018-11-04T05:02:30.480Z,998.93
2018-11-04T05:03:30.466Z,998.93
2018-11-04T05:04:30.515Z,998.93
2018-11-04T05:05:30.486Z,998.96
2018-11-04T05:06:30.434Z,998.98
2018-11-04T05:07:30.447Z,998.95
2018-11-04T05:08:30.411Z,998.92
2018-11-04T05:09:30.407Z,998.95
2018-11-04T05:10:30.537Z,998.96
2018-11-04T05:11:30.378Z,998.96
2018-11-04T05:12:30.370Z,998.97
2018-11-04T05:13:30.377Z,998.94
2018-11-04T05:14:30.345Z,998.95
2018-11-04T05:15:30.338Z,998.98
2018-11-04T05:16:30.369Z,998.96
2018-11-04T05:17:30.319Z,998.95
2018-11-04T05:18:30.311Z,998.93
2018-11-04T05:19:30.304Z,998.94
2018-11-04T05:20:30.284Z,998.92
2018-11-04T05:21:30.277Z,998.92
2018-11-04T05:22:30.312Z,998.88
2018-11-04T05:23:30.250Z,998.93
2018-11-04T05:24:30.238Z,998.92
2018-11-04T05:25:30.242Z,998.89
2018-11-04T05:26:30.219Z,998.95
2018-11-04T05:27:30.271Z,998.95
2018-11-04T05:28:30.250Z,998.90
2018-11-04T05:29:30.186Z,998.94
2018-11-04T05:30:30.172Z,998.90
2018-11-04T05:31:30.203Z,998.89
2018-11-04T05:32:30.157Z,998.90
2018-11-04T05:33:30.144Z,998.88
2018-11-04T05:34:30.176Z,998.86
2018-11-04T05:35:30.120Z,998.89
2018-11-04T05:36:30.119Z,998.91
2018-11-04T05:37:30.137Z,998.90
2018-11-04T05:38:30.143Z,998.93
2018-11-04T05:39:30.076Z,998.89
2018-11-04T05:40:30.123Z,998.89
2018-11-04T05:41:30.057Z,998.88
2018-11-04T05:42:30.043Z,998.92
2018-11-04T05:43:30.052Z,998.92
2018-11-04T05:44:30.022Z,998.90
2018-11-04T05:45:30.018Z,998.89
2018-11-04T05:46:30.038Z,998.87
2018-11-04T05:47:29.992Z,998.83
2018-11-04T05:48:29.979Z,998.87
2018-11-04T05:49:29.991Z,998.87
2018-11-04T05:50:29.959Z,998.87
2018-11-04T05:51:29.957Z,998.88
2018-11-04T05:52:29.963Z,998.90
2018-11-04T05:53:29.932Z,998.91
2018-11-04T05:54:29.915Z,998.87
2018-11-04T05:55:29.941Z,998.86
2018-11-04T05:56:29.897Z,998.90
2018-11-04T05:57:29.892Z,998.89
2018-11-04T05:58:29.942Z,998.90
2018-11-04T05:59:29.863Z,998.89
2018-11-04T06:00:29.850Z,998.91
2018-11-04T06:01:29.840Z,998.82
2018-11-04T06:02:29.833Z,998.81
2018-11-04T06:03:29.843Z,998.79
2018-11-04T06:04:29.857Z,998.75
2018-11-04T06:05:29.798Z,998.82
2018-11-04T06:06:29.791Z,998.88
2018-11-04T06:07:29.776Z,998.82
2018-11-04T06:08:29.787Z,998.80
2018-11-04T06:09:29.769Z,998.80
2018-11-04T06:10:29.773Z,998.76
2018-11-04T06:11:29.736Z,998.77
2018-11-04T06:12:29.720Z,998.78
2018-11-04T06:13:29.710Z,998.84
2018-11-04T06:14:29.696Z,998.83
2018-11-04T06:15:29.687Z,998.78
2018-11-04T06:16:29.747Z,998.79
2018-11-04T06:17:29.672Z,998.83
2018-11-04T06:18:29.711Z,998.82
2018-11-04T06:19:29.727Z,998.83
2018-11-04T06:20:29.651Z,998.84
2018-11-04T06:21:29.627Z,998.83
2018-11-04T06:22:29.668Z,998.81
2018-11-04T06:23:29.602Z,998.80
2018-11-04T06:24:29.590Z,998.82
2018-11-04T06:25:29.580Z,998.80
2018-11-04T06:26:29.578Z,998.80
2018-11-04T06:27:29.564Z,998.81
2018-11-04T06:28:29.617Z,998.85
2018-11-04T06:29:29.535Z,998.81
2018-11-04T06:30:29.523Z,998.79
2018-11-04T06:31:29.515Z,998.80
2018-11-04T06:32:29.518Z,998.74
2018-11-04T06:33:29.495Z,998.72
2018-11-04T06:34:29.568Z,998.71
2018-11-04T06:35:29.479Z,998.70
2018-11-04T06:36:29.462Z,998.72
2018-11-04T06:37:29.451Z,998.72
2018-11-04T06:38:29.441Z,998.72
2018-11-04T06:39:29.431Z,998.66
2018-11-04T06:40:29.459Z,998.70
2018-11-04T06:41:29.442Z,998.67
2018-11-04T06:42:29.399Z,998.66
2018-11-04T06:43:29.391Z,998.71
2018-11-04T06:44:29.380Z,998.71
2018-11-04T06:45:29.362Z,998.67
2018-11-04T06:46:29.403Z,998.69
2018-11-04T06:47:29.384Z,998.71
2018-11-04T06:48:29.336Z,998.67
2018-11-04T06:49:29.334Z,998.68
2018-11-04T06:50:29.307Z,998.68
2018-11-04T06:51:29.302Z,998.66
2018-11-04T06:52:29.353Z,998.66
2018-11-04T06:53:29.287Z,998.67
2018-11-04T06:54:29.271Z,998.65
2018-11-04T06:55:29.255Z,998.69
2018-11-04T06:56:29.244Z,998.68
2018-11-04T06:57:29.232Z,998.74
2018-11-04T06:58:29.263Z,998.75
2018-11-04T06:59:29.238Z,998.77
2018-11-04T07:00:29.200Z,998.75
2018-11-04T07:01:29.189Z,998.74
2018-11-04T07:02:29.178Z,998.81
2018-11-04T07:03:29.172Z,998.74
2018-11-04T07:04:29.203Z,998.77
2018-11-04T07:05:29.178Z,998.75
2018-11-04T07:06:29.136Z,998.77
2018-11-04T07:07:29.132Z,998.78
2018-11-04T07:08:29.116Z,998.76
2018-11-04T07:09:29.123Z,998.79
2018-11-04T07:10:29.137Z,998.79
2018-11-04T07:11:29.078Z,998.83
2018-11-04T07:12:29.092Z,998.81
2018-11-04T07:13:29.068Z,998.79
2018-11-04T07:14:29.046Z,998.76
2018-11-04T07:15:29.035Z,998.74
2018-11-04T07:16:29.073Z,998.73
2018-11-04T07:17:29.015Z,998.77
2018-11-04T07:18:29.038Z,998.78
2018-11-04T07:19:29.004Z,998.73
2018-11-04T07:20:28.982Z,998.75
2018-11-04T07:21:28.979Z,998.71
2018-11-04T07:22:29.010Z,998.72
2018-11-04T07:23:28.949Z,998.70
2018-11-04T07:24:28.944Z,998.68
2018-11-04T07:25:28.936Z,998.64
2018-11-04T07:26:28.941Z,998.62
2018-11-04T07:27:28.912Z,998.67
2018-11-04T07:28:31.610Z,998.68
2018-11-04T07:29:29.628Z,998.66
2018-11-04T07:30:29.125Z,998.68
2018-11-04T07:31:30.493Z,998.67
2018-11-04T07:32:28.863Z,998.69
2018-11-04T07:33:28.849Z,998.61
2018-11-04T07:34:28.884Z,998.62
2018-11-04T07:35:28.819Z,998.60
2018-11-04T07:36:28.817Z,998.67
2018-11-04T07:37:28.809Z,998.67
2018-11-04T07:38:28.794Z,998.64
2018-11-04T07:39:28.825Z,998.65
2018-11-04T07:40:28.805Z,998.63
2018-11-04T07:41:28.753Z,998.66
2018-11-04T07:42:28.745Z,998.60
2018-11-04T07:43:28.796Z,998.66
2018-11-04T07:44:28.828Z,998.64
2018-11-04T07:45:28.712Z,998.64
2018-11-04T07:46:28.740Z,998.61
2018-11-04T07:47:28.690Z,998.61
2018-11-04T07:48:28.682Z,998.61
2018-11-04T07:49:28.672Z,998.60
2018-11-04T07:50:28.664Z,998.56
2018-11-04T07:51:28.705Z,998.63
2018-11-04T07:52:28.688Z,998.59
2018-11-04T07:53:28.624Z,998.56
2018-11-04T07:54:28.617Z,998.56
2018-11-04T07:55:28.620Z,998.62
2018-11-04T07:56:28.600Z,998.62
2018-11-04T07:57:28.663Z,998.62
2018-11-04T07:58:28.614Z,998.60
2018-11-04T07:59:28.559Z,998.62
2018-11-04T08:00:28.548Z,998.60
2018-11-04T08:01:28.540Z,998.55
2018-11-04T08:02:28.575Z,998.55
2018-11-04T08:03:28.552Z,998.54
2018-11-04T08:04:28.548Z,998.54
2018-11-04T08:05:28.494Z,998.59
2018-11-04T08:06:28.490Z,998.53
2018-11-04T08:07:28.784Z,998.51
2018-11-04T08:08:28.615Z,998.49
2018-11-04T08:09:28.534Z,998.55
2018-11-04T08:10:28.489Z,998.56
2018-11-04T08:11:28.554Z,998.55
2018-11-04T08:12:28.455Z,998.54
2018-11-04T08:13:28.424Z,998.51
2018-11-04T08:14:28.468Z,998.48
2018-11-04T08:15:28.388Z,998.46
2018-11-04T08:16:28.575Z,998.40
2018-11-04T08:17:28.385Z,998.44
2018-11-04T08:18:28.385Z,998.40
2018-11-04T08:19:28.358Z,998.41
2018-11-04T08:20:28.333Z,998.37
2018-11-04T08:21:28.468Z,998.35
2018-11-04T08:22:28.340Z,998.34
2018-11-04T08:23:28.309Z,998.38
2018-11-04T08:24:28.284Z,998.36
2018-11-04T08:25:28.287Z,998.35
2018-11-04T08:26:28.267Z,998.33
2018-11-04T08:27:28.251Z,998.27
2018-11-04T08:28:28.302Z,998.26
2018-11-04T08:29:28.232Z,998.27
2018-11-04T08:30:28.236Z,998.27
2018-11-04T08:31:28.208Z,998.27
2018-11-04T08:32:28.199Z,998.24
2018-11-04T08:33:28.198Z,998.24
2018-11-04T08:34:28.256Z,998.22
2018-11-04T08:35:28.175Z,998.23
2018-11-04T08:36:28.166Z,998.21
2018-11-04T08:37:28.158Z,998.20
2018-11-04T08:38:28.154Z,998.17
2018-11-04T08:39:28.153Z,998.16
2018-11-04T08:40:28.283Z,998.16
2018-11-04T08:41:28.117Z,998.14
2018-11-04T08:42:28.088Z,998.18
2018-11-04T08:43:28.084Z,998.20
2018-11-04T08:44:28.074Z,998.12
2018-11-04T08:45:28.060Z,998.17
2018-11-04T08:46:28.094Z,998.16
2018-11-04T08:47:28.044Z,998.18
2018-11-04T08:48:28.018Z,998.15
2018-11-04T08:49:28.034Z,998.18
2018-11-04T08:50:28.000Z,998.17
2018-11-04T08:51:28.031Z,998.14
2018-11-04T08:52:28.073Z,998.14
2018-11-04T08:53:27.971Z,998.08
2018-11-04T08:54:27.954Z,998.14
2018-11-04T08:55:27.960Z,998.08
2018-11-04T08:56:27.934Z,998.08
2018-11-04T08:57:27.924Z,998.10
2018-11-04T08:58:27.953Z,998.09
2018-11-04T08:59:27.899Z,998.10
2018-11-04T09:00:27.939Z,998.09
2018-11-04T09:01:27.877Z,998.06
2018-11-04T09:02:27.866Z,998.08
2018-11-04T09:03:27.856Z,998.03
2018-11-04T09:04:27.915Z,998.00
2018-11-04T09:05:27.837Z,998.04
2018-11-04T09:06:27.901Z,998.02
2018-11-04T09:07:27.833Z,998.04
2018-11-04T09:08:27.802Z,998.04
2018-11-04T09:09:27.810Z,998.02
2018-11-04T09:10:27.860Z,998.05
2018-11-04T09:11:27.773Z,998.04
2018-11-04T09:12:27.768Z,998.05
2018-11-04T09:13:27.757Z,998.01
2018-11-04T09:14:27.852Z,998.01
2018-11-04T09:15:27.724Z,998.02
2018-11-04T09:16:27.769Z,998.02
2018-11-04T09:17:27.728Z,998.02
2018-11-04T09:18:27.763Z,998.04
2018-11-04T09:19:27.680Z,998.02
2018-11-04T09:20:27.677Z,998.02
2018-11-04T09:21:27.669Z,998.02
2018-11-04T09:22:27.723Z,997.96
2018-11-04T09:23:27.662Z,997.95
2018-11-04T09:24:27.646Z,997.97
2018-11-04T09:25:27.621Z,998.00
2018-11-04T09:26:27.622Z,998.00
2018-11-04T09:27:27.611Z,997.98
2018-11-04T09:28:27.618Z,997.98
2018-11-04T09:29:27.576Z,997.94
2018-11-04T09:30:27.566Z,998.00
2018-11-04T09:31:27.562Z,998.00
2018-11-04T09:32:27.571Z,997.99
2018-11-04T09:33:27.538Z,997.96
2018-11-04T09:34:27.589Z,997.96
2018-11-04T09:35:27.675Z,998.00
2018-11-04T09:36:27.598Z,997.99
2018-11-04T09:37:27.508Z,997.99
2018-11-04T09:38:27.495Z,997.99
2018-11-04T09:39:27.482Z,997.93
2018-11-04T09:40:27.517Z,997.92
2018-11-04T09:41:27.445Z,997.98
2018-11-04T09:42:27.542Z,997.89
2018-11-04T09:43:27.435Z,997.92
2018-11-04T09:44:27.426Z,997.93
2018-11-04T09:45:27.476Z,997.93
2018-11-04T09:46:27.427Z,997.92
2018-11-04T09:47:27.553Z,997.94
2018-11-04T09:48:27.442Z,997.93
2018-11-04T09:49:27.370Z,997.92
2018-11-04T09:50:27.351Z,997.96
2018-11-04T09:51:27.343Z,997.94
2018-11-04T09:52:27.414Z,997.92
2018-11-04T09:53:27.358Z,997.91
2018-11-04T09:54:27.302Z,997.90
2018-11-04T09:55:27.295Z,997.95
2018-11-04T09:56:27.399Z,997.99
2018-11-04T09:57:27.276Z,997.94
2018-11-04T09:58:27.312Z,997.97
2018-11-04T09:59:27.279Z,997.95
2018-11-04T10:00:27.237Z,997.98
2018-11-04T10:01:27.371Z,997.98
2018-11-04T10:02:27.277Z,997.95
2018-11-04T10:03:27.218Z,997.95
2018-11-04T10:04:27.395Z,997.91
2018-11-04T10:05:27.223Z,997.95
2018-11-04T10:06:27.194Z,997.93
2018-11-04T10:07:27.164Z,997.89
2018-11-04T10:08:27.152Z,997.91
2018-11-04T10:09:27.138Z,997.91
2018-11-04T10:10:27.179Z,997.86
2018-11-04T10:11:27.117Z,997.92
2018-11-04T10:12:27.112Z,997.89
2018-11-04T10:13:27.164Z,997.91
2018-11-04T10:14:27.084Z,997.91
2018-11-04T10:15:27.095Z,997.89
2018-11-04T10:16:27.270Z,997.87
2018-11-04T10:17:27.129Z,997.90
2018-11-04T10:18:27.192Z,997.86
2018-11-04T10:19:27.103Z,997.80
2018-11-04T10:20:27.273Z,997.85
2018-11-04T10:21:27.057Z,997.87
2018-11-04T10:22:27.074Z,997.85
2018-11-04T10:23:26.984Z,997.85
2018-11-04T10:24:26.989Z,997.88
2018-11-04T10:25:26.975Z,997.85
2018-11-04T10:26:26.954Z,997.83
2018-11-04T10:27:26.946Z,997.80
2018-11-04T10:28:27.162Z,997.78
2018-11-04T10:29:26.916Z,997.81
2018-11-04T10:30:27.023Z,997.77
2018-11-04T10:31:26.898Z,997.73
2018-11-04T10:32:26.919Z,997.76
2018-11-04T10:33:26.876Z,997.79
2018-11-04T10:34:26.916Z,997.69
2018-11-04T10:35:26.868Z,997.72
2018-11-04T10:36:26.841Z,997.71
2018-11-04T10:37:26.887Z,997.65
2018-11-04T10:38:26.820Z,997.69
2018-11-04T10:39:26.804Z,997.60
2018-11-04T10:40:26.858Z,997.63
2018-11-04T10:41:26.788Z,997.58
2018-11-04T10:42:26.859Z,997.54
2018-11-04T10:43:26.762Z,997.57
2018-11-04T10:44:26.749Z,997.54
2018-11-04T10:45:26.739Z,997.51
2018-11-04T10:46:26.773Z,997.48
2018-11-04T10:47:26.738Z,997.49
2018-11-04T10:48:26.711Z,997.50
2018-11-04T10:49:26.737Z,997.46
2018-11-04T10:50:26.684Z,997.43
2018-11-04T10:51:26.674Z,997.44
2018-11-04T10:52:26.720Z,997.42
2018-11-04T10:53:26.658Z,997.44
2018-11-04T10:54:26.647Z,997.35
2018-11-04T10:55:26.635Z,997.40
2018-11-04T10:56:26.618Z,997.35
2018-11-04T10:57:26.635Z,997.33
2018-11-04T10:58:26.684Z,997.33
2018-11-04T10:59:26.599Z,997.31
2018-11-04T11:00:26.571Z,997.28
2018-11-04T11:01:26.565Z,997.28
2018-11-04T11:02:26.556Z,997.26
2018-11-04T11:03:26.538Z,997.16
2018-11-04T11:04:26.634Z,997.15
2018-11-04T11:05:26.517Z,997.15
2018-11-04T11:06:26.505Z,997.13
2018-11-04T11:07:26.532Z,997.13
2018-11-04T11:08:26.481Z,997.13
2018-11-04T11:09:26.478Z,997.13
2018-11-04T11:10:26.552Z,997.14
2018-11-04T11:11:26.454Z,997.12
2018-11-04T11:12:26.439Z,997.04
2018-11-04T11:13:26.469Z,997.06
2018-11-04T11:14:26.422Z,997.09
2018-11-04T11:15:26.746Z,997.04
2018-11-04T11:16:26.435Z,997.05
2018-11-04T11:17:26.384Z,997.00
2018-11-04T11:18:26.389Z,997.03
2018-11-04T11:19:26.359Z,997.01
2018-11-04T11:20:27.153Z,997.03
2018-11-04T11:21:26.336Z,997.06
2018-11-04T11:22:26.398Z,997.01
2018-11-04T11:23:26.365Z,997.02
2018-11-04T11:24:26.306Z,996.99
2018-11-04T11:25:26.303Z,996.93
2018-11-04T11:26:26.462Z,996.93
2018-11-04T11:27:26.270Z,996.87
2018-11-04T11:28:26.346Z,996.75
2018-11-04T11:29:26.247Z,996.74
2018-11-04T11:30:26.238Z,996.81
2018-11-04T11:31:26.227Z,996.74
2018-11-04T11:32:26.219Z,996.72
2018-11-04T11:33:26.205Z,996.67
2018-11-04T11:34:26.236Z,996.66
2018-11-04T11:35:26.193Z,996.65
2018-11-04T11:36:26.175Z,996.63
2018-11-04T11:37:26.248Z,996.65
2018-11-04T11:38:26.167Z,996.66
2018-11-04T11:39:26.136Z,996.58
2018-11-04T11:40:26.168Z,996.60
2018-11-04T11:41:26.136Z,996.62
2018-11-04T11:42:26.118Z,996.58
2018-11-04T11:43:26.095Z,996.60
2018-11-04T11:44:26.084Z,996.57
2018-11-04T11:45:26.080Z,996.54
2018-11-04T11:46:26.113Z,996.53
2018-11-04T11:47:26.199Z,996.47
2018-11-04T11:48:26.092Z,996.45
2018-11-04T11:49:26.031Z,996.52
2018-11-04T11:50:26.015Z,996.47
2018-11-04T11:51:26.012Z,996.47
2018-11-04T11:52:26.486Z,996.40
2018-11-04T11:53:25.988Z,996.42
2018-11-04T11:54:25.990Z,996.39
2018-11-04T11:55:25.966Z,996.36
2018-11-04T11:56:25.979Z,996.38
2018-11-04T11:57:25.937Z,996.33
2018-11-04T11:58:26.094Z,996.32
2018-11-04T11:59:26.061Z,996.33
2018-11-04T12:00:25.907Z,996.26
2018-11-04T12:01:25.913Z,996.27
2018-11-04T12:02:26.037Z,996.22
2018-11-04T12:03:25.872Z,996.20
2018-11-04T12:04:25.920Z,996.18
2018-11-04T12:05:25.849Z,996.17
2018-11-04T12:06:25.891Z,996.18
2018-11-04T12:07:25.828Z,996.15
2018-11-04T12:08:25.820Z,996.14
2018-11-04T12:09:25.823Z,996.08
2018-11-04T12:10:25.883Z,996.09
2018-11-04T12:11:25.804Z,996.11
2018-11-04T12:12:25.773Z,996.13
2018-11-04T12:13:25.773Z,996.10
2018-11-04T12:14:25.759Z,996.10
2018-11-04T12:15:25.741Z,996.02
2018-11-04T12:16:25.781Z,995.98
2018-11-04T12:17:25.721Z,995.98
2018-11-04T12:18:25.739Z,995.97
2018-11-04T12:19:25.698Z,995.94
2018-11-04T12:20:25.695Z,995.91
2018-11-04T12:21:25.674Z,995.90
2018-11-04T12:22:25.702Z,995.93
2018-11-04T12:23:25.711Z,995.89